Time;durP1;ratioP1;P1;durP2;ratioP2;P2;SDS_P1;SDS_P2;PMS_P1;PMS_P2;Temp;Humidity;BMP_temperature;BMP_pressure;BME280_temperature;BME280_humidity;BME280_pressure;Samples;Min_cycle;Max_cycle;Signal;HPM_P1;HPM_P2
2021/04/09 00:01:32;;;;;;;11.05;4.78;;;3.00;99.90;;;;;;3567046;40;20032;-68
2021/04/09 00:03:58;;;;;;;8.95;4.38;;;3.00;99.90;;;;;;3576300;40;20028;-67
2021/04/09 00:06:24;;;;;;;11.18;4.38;;;3.00;99.90;;;;;;3574255;40;20041;-67
2021/04/09 00:08:50;;;;;;;8.13;4.20;;;3.00;99.90;;;;;;3570733;40;20072;-67
2021/04/09 00:11:17;;;;;;;13.25;4.32;;;3.00;99.90;;;;;;3572445;40;20309;-67
2021/04/09 00:13:43;;;;;;;10.32;4.10;;;3.00;99.90;;;;;;3572469;40;20029;-67
2021/04/09 00:16:09;;;;;;;12.80;4.80;;;2.90;99.90;;;;;;3572211;40;20508;-67
2021/04/09 00:18:35;;;;;;;9.80;4.40;;;2.90;99.90;;;;;;3565241;40;20091;-67
2021/04/09 00:21:01;;;;;;;14.02;4.20;;;2.90;99.90;;;;;;3572131;40;20126;-67
2021/04/09 00:23:27;;;;;;;9.68;4.50;;;2.90;99.90;;;;;;3570966;40;20202;-67
2021/04/09 00:25:52;;;;;;;10.52;4.35;;;2.90;99.90;;;;;;3571974;40;20642;-67
2021/04/09 00:28:18;;;;;;;10.93;4.35;;;2.90;99.90;;;;;;3572420;40;20376;-67
2021/04/09 00:30:46;;;;;;;8.88;4.15;;;2.90;99.90;;;;;;3571430;40;20126;-67
2021/04/09 00:33:11;;;;;;;11.57;4.18;;;2.90;99.90;;;;;;3567136;40;20104;-67
2021/04/09 00:35:38;;;;;;;15.57;4.47;;;2.90;99.90;;;;;;3572653;40;20037;-67
2021/04/09 00:38:03;;;;;;;21.73;5.82;;;2.90;99.90;;;;;;3571391;40;20085;-67
2021/04/09 00:40:29;;;;;;;9.05;4.00;;;2.90;99.90;;;;;;3573378;40;20040;-67
2021/04/09 00:42:55;;;;;;;9.93;4.13;;;2.90;99.90;;;;;;3572632;40;20116;-67
2021/04/09 00:45:21;;;;;;;10.90;4.55;;;2.90;99.90;;;;;;3567557;40;20044;-67
2021/04/09 00:47:47;;;;;;;9.45;4.15;;;2.90;99.90;;;;;;3571841;40;20044;-67
2021/04/09 00:50:14;;;;;;;11.00;4.70;;;2.90;99.90;;;;;;3571650;40;20031;-67
2021/04/09 00:52:45;;;;;;;13.98;4.75;;;2.90;99.90;;;;;;3572975;40;20628;-67
2021/04/09 00:55:12;;;;;;;12.85;6.25;;;2.90;99.90;;;;;;3572467;40;20083;-68
2021/04/09 00:57:38;;;;;;;11.40;4.65;;;2.90;99.90;;;;;;3573414;40;20057;-67
2021/04/09 01:00:08;;;;;;;8.30;4.80;;;2.90;99.90;;;;;;3572478;40;20046;-68
2021/04/09 01:02:34;;;;;;;16.02;5.97;;;2.80;99.90;;;;;;3573203;40;20029;-68
2021/04/09 01:05:00;;;;;;;15.32;6.00;;;2.80;99.90;;;;;;3574226;40;20052;-67
2021/04/09 01:07:27;;;;;;;11.82;6.00;;;2.80;99.90;;;;;;3574248;40;20126;-68
2021/04/09 01:09:54;;;;;;;14.48;5.78;;;2.70;99.90;;;;;;3574236;40;20158;-68
2021/04/09 01:12:20;;;;;;;15.70;6.60;;;2.80;99.90;;;;;;3572935;40;20515;-67
2021/04/09 01:14:46;;;;;;;18.02;6.78;;;2.70;99.90;;;;;;3574559;40;20067;-67
2021/04/09 01:17:18;;;;;;;13.88;6.10;;;2.80;99.90;;;;;;3563240;40;20080;-68
2021/04/09 01:20:23;;;;;;;16.58;6.35;;;2.80;99.90;;;;;;3574506;40;20033;-67
2021/04/09 01:23:24;;;;;;;15.68;6.53;;;2.80;99.90;;;;;;3573661;40;20448;-67
2021/04/09 01:26:08;;;;;;;13.63;6.25;;;2.70;99.90;;;;;;3574017;40;20045;-68
2021/04/09 01:29:12;;;;;;;13.23;5.75;;;2.70;99.90;;;;;;3571719;40;20051;-67
2021/04/09 01:31:40;;;;;;;16.33;6.47;;;2.70;99.90;;;;;;3572979;40;20055;-68
2021/04/09 01:34:08;;;;;;;10.57;5.45;;;2.70;99.90;;;;;;3572252;40;20059;-67
2021/04/09 01:36:39;;;;;;;17.35;6.85;;;2.70;99.90;;;;;;3567182;40;20688;-68
2021/04/09 01:39:14;;;;;;;14.05;6.15;;;2.60;99.90;;;;;;3573476;40;20405;-68
2021/04/09 01:41:41;;;;;;;12.30;6.07;;;2.50;99.90;;;;;;3573458;40;20048;-67
2021/04/09 01:44:10;;;;;;;11.52;6.28;;;2.50;99.90;;;;;;3573587;40;20091;-67
2021/04/09 01:46:38;;;;;;;9.98;5.60;;;2.60;99.90;;;;;;3573831;40;20349;-67
2021/04/09 01:49:06;;;;;;;13.32;5.72;;;2.60;99.90;;;;;;3573641;40;20092;-67
2021/04/09 01:51:33;;;;;;;14.75;6.35;;;2.60;99.90;;;;;;3568339;40;20042;-67
2021/04/09 01:53:59;;;;;;;17.83;5.88;;;2.60;99.90;;;;;;3572746;40;20048;-68
2021/04/09 01:56:26;;;;;;;13.85;5.47;;;2.60;99.90;;;;;;3572813;40;20508;-68
2021/04/09 01:58:53;;;;;;;12.98;5.88;;;2.60;99.90;;;;;;3573113;40;20037;-68
2021/04/09 02:01:19;;;;;;;12.80;5.38;;;2.60;99.90;;;;;;3568098;40;20032;-67
2021/04/09 02:03:46;;;;;;;10.45;5.53;;;2.60;99.90;;;;;;3572863;40;20134;-67
2021/04/09 02:06:13;;;;;;;11.45;5.05;;;2.60;99.90;;;;;;3574176;40;20043;-67
2021/04/09 02:08:40;;;;;;;12.52;5.38;;;2.50;99.90;;;;;;3572132;40;20064;-67
2021/04/09 02:11:07;;;;;;;11.50;5.20;;;2.50;99.90;;;;;;3573882;40;20045;-67
2021/04/09 02:13:34;;;;;;;13.90;5.43;;;2.50;99.90;;;;;;3572230;40;20037;-67
2021/04/09 02:16:01;;;;;;;11.65;5.10;;;2.50;99.90;;;;;;3572928;40;20181;-67
2021/04/09 02:18:28;;;;;;;12.20;5.38;;;2.50;99.90;;;;;;3572522;40;20037;-67
2021/04/09 02:20:57;;;;;;;11.35;5.00;;;2.40;99.90;;;;;;3573083;40;20804;-68
2021/04/09 02:23:23;;;;;;;12.77;5.72;;;2.40;99.90;;;;;;3571936;40;20125;-67
2021/04/09 02:25:48;;;;;;;12.38;5.78;;;2.40;99.90;;;;;;3572942;40;20029;-67
2021/04/09 02:28:14;;;;;;;13.02;5.35;;;2.40;99.90;;;;;;3572562;40;20048;-68
2021/04/09 02:30:41;;;;;;;12.70;5.38;;;2.40;99.90;;;;;;3572903;40;20033;-67
2021/04/09 02:33:07;;;;;;;15.63;5.60;;;2.40;99.90;;;;;;3573803;40;20111;-67
2021/04/09 02:35:33;;;;;;;18.50;5.13;;;2.40;99.90;;;;;;3573137;40;20333;-67
2021/04/09 02:37:59;;;;;;;12.77;5.55;;;2.40;99.90;;;;;;3573429;40;20041;-67
2021/04/09 02:40:29;;;;;;;11.82;5.40;;;2.40;99.90;;;;;;3572784;40;20033;-67
2021/04/09 02:42:55;;;;;;;9.32;5.05;;;2.30;99.90;;;;;;3573918;40;20134;-67
2021/04/09 02:45:23;;;;;;;10.13;4.80;;;2.30;99.90;;;;;;3571472;40;20060;-67
2021/04/09 02:47:51;;;;;;;15.00;5.25;;;2.30;99.90;;;;;;3572276;40;20036;-67
2021/04/09 02:50:27;;;;;;;11.77;4.88;;;2.30;99.90;;;;;;3571448;40;20037;-67
2021/04/09 02:52:57;;;;;;;13.05;5.18;;;2.30;99.90;;;;;;3562926;40;20056;-67
2021/04/09 02:55:27;;;;;;;13.35;4.95;;;2.30;99.90;;;;;;3572015;40;20044;-67
2021/04/09 02:57:54;;;;;;;9.55;5.15;;;2.20;99.90;;;;;;3573506;40;20043;-67
2021/04/09 03:00:22;;;;;;;10.10;4.63;;;2.20;99.90;;;;;;3571823;40;20040;-67
2021/04/09 03:02:48;;;;;;;12.20;5.05;;;2.20;99.90;;;;;;3567243;40;20462;-67
2021/04/09 03:05:16;;;;;;;12.73;5.25;;;2.20;99.90;;;;;;3570762;40;20064;-67
2021/04/09 03:07:43;;;;;;;13.93;5.10;;;2.20;99.90;;;;;;3572619;40;20649;-67
2021/04/09 03:10:14;;;;;;;11.20;5.78;;;2.20;99.90;;;;;;3572313;40;20126;-67
2021/04/09 03:12:41;;;;;;;15.48;5.13;;;2.10;99.90;;;;;;3573820;40;20029;-67
2021/04/09 03:15:13;;;;;;;18.70;5.43;;;2.10;99.90;;;;;;3571776;40;20036;-67
2021/04/09 03:17:57;;;;;;;14.48;5.20;;;2.10;99.90;;;;;;3571503;40;20037;-67
2021/04/09 03:20:24;;;;;;;8.18;4.53;;;2.10;99.90;;;;;;3571880;40;20422;-67
2021/04/09 03:22:51;;;;;;;11.25;5.35;;;2.10;99.90;;;;;;3572063;40;20822;-67
2021/04/09 03:25:17;;;;;;;12.23;5.07;;;2.00;99.90;;;;;;3572821;40;20133;-67
2021/04/09 03:27:43;;;;;;;12.57;5.47;;;2.10;99.90;;;;;;3567572;40;20117;-67
2021/04/09 03:30:09;;;;;;;9.80;5.03;;;2.00;99.90;;;;;;3575484;40;20045;-67
2021/04/09 03:32:35;;;;;;;8.90;5.10;;;1.90;99.90;;;;;;3575202;40;20028;-67
2021/04/09 03:35:01;;;;;;;13.45;5.40;;;1.90;99.90;;;;;;3573113;40;20056;-67
2021/04/09 03:37:27;;;;;;;8.77;5.00;;;2.00;99.90;;;;;;3574873;40;20536;-67
2021/04/09 03:39:53;;;;;;;13.88;5.63;;;2.00;99.90;;;;;;3573701;40;20459;-67
2021/04/09 03:42:19;;;;;;;11.38;5.05;;;1.90;99.90;;;;;;3572937;40;20199;-67
2021/04/09 03:44:44;;;;;;;9.98;5.07;;;1.90;99.90;;;;;;3572854;40;20365;-67
2021/04/09 03:47:10;;;;;;;10.85;5.55;;;2.00;99.90;;;;;;3570163;40;20109;-67
2021/04/09 03:49:36;;;;;;;12.38;5.18;;;2.00;99.90;;;;;;3573408;40;20750;-67
2021/04/09 03:52:02;;;;;;;14.13;5.22;;;2.10;99.90;;;;;;3576572;40;20036;-67
2021/04/09 03:54:28;;;;;;;10.57;5.22;;;2.00;99.90;;;;;;3573200;40;20044;-67
2021/04/09 03:56:54;;;;;;;8.57;5.20;;;2.00;99.90;;;;;;3575033;40;20041;-67
2021/04/09 03:59:20;;;;;;;13.55;5.60;;;2.00;99.90;;;;;;3575161;40;20028;-67
2021/04/09 04:01:46;;;;;;;11.13;5.75;;;1.90;99.90;;;;;;3573783;40;20104;-67
2021/04/09 04:04:12;;;;;;;13.27;5.55;;;1.90;99.90;;;;;;3566713;40;20056;-67
2021/04/09 04:06:37;;;;;;;11.05;5.07;;;1.90;99.90;;;;;;3572970;40;20038;-68
2021/04/09 04:09:04;;;;;;;10.30;5.40;;;1.90;99.90;;;;;;3574619;40;20036;-67
2021/04/09 04:11:30;;;;;;;11.27;5.53;;;1.90;99.90;;;;;;3571993;40;20067;-68
2021/04/09 04:13:55;;;;;;;11.40;5.72;;;1.90;99.90;;;;;;3574224;40;20648;-67
2021/04/09 04:16:21;;;;;;;10.90;5.70;;;1.90;99.90;;;;;;3576636;40;20028;-67
2021/04/09 04:18:47;;;;;;;12.80;6.03;;;1.90;99.90;;;;;;3573539;40;20131;-67
2021/04/09 04:21:13;;;;;;;15.35;5.55;;;1.80;99.90;;;;;;3562462;40;20856;-67
2021/04/09 04:23:39;;;;;;;10.90;5.90;;;1.90;99.90;;;;;;3572749;40;20041;-68
2021/04/09 04:26:04;;;;;;;14.10;5.75;;;1.90;99.90;;;;;;3573422;40;20047;-67
2021/04/09 04:28:31;;;;;;;10.52;5.15;;;1.80;99.90;;;;;;3573579;40;20040;-67
2021/04/09 04:30:58;;;;;;;15.18;6.32;;;1.80;99.90;;;;;;3571817;40;20037;-67
2021/04/09 04:33:24;;;;;;;13.10;5.97;;;1.80;99.90;;;;;;3566492;40;20129;-68
2021/04/09 04:35:50;;;;;;;12.05;5.80;;;1.80;99.90;;;;;;3574375;40;20088;-68
2021/04/09 04:38:17;;;;;;;11.05;5.97;;;1.80;99.90;;;;;;3576299;40;20044;-67
2021/04/09 04:40:44;;;;;;;13.88;6.55;;;1.90;99.90;;;;;;3564553;40;20324;-67
2021/04/09 04:43:10;;;;;;;13.23;6.03;;;1.90;99.90;;;;;;3577657;40;20043;-67
2021/04/09 04:45:36;;;;;;;14.23;6.47;;;1.90;99.90;;;;;;3577904;40;20134;-68
2021/04/09 04:48:03;;;;;;;16.15;6.53;;;1.90;99.90;;;;;;3568376;40;20052;-68
2021/04/09 04:50:29;;;;;;;12.27;6.68;;;1.90;99.90;;;;;;3576101;40;20039;-68
2021/04/09 04:52:55;;;;;;;13.27;6.25;;;1.90;99.90;;;;;;3575293;40;20033;-68
2021/04/09 04:55:20;;;;;;;16.35;6.45;;;1.90;99.90;;;;;;3575834;40;20123;-68
2021/04/09 04:57:46;;;;;;;15.45;6.25;;;1.90;99.90;;;;;;3576301;40;20048;-67
2021/04/09 05:00:12;;;;;;;11.13;6.28;;;1.90;99.90;;;;;;3573652;40;20049;-68
2021/04/09 05:02:38;;;;;;;14.43;6.20;;;2.00;99.90;;;;;;3577618;40;20072;-68
2021/04/09 05:05:05;;;;;;;13.70;6.88;;;2.10;99.90;;;;;;3568608;40;20138;-67
2021/04/09 05:07:31;;;;;;;13.02;6.72;;;2.10;99.90;;;;;;3577409;40;20029;-68
2021/04/09 05:09:57;;;;;;;20.35;7.32;;;2.10;99.90;;;;;;3576234;40;20045;-69
2021/04/09 05:12:23;;;;;;;12.48;6.85;;;2.20;99.90;;;;;;3577253;40;20421;-67
2021/04/09 05:14:51;;;;;;;14.73;6.82;;;2.20;99.90;;;;;;3567777;40;20164;-68
2021/04/09 05:17:17;;;;;;;14.50;7.22;;;2.20;99.90;;;;;;3573572;40;20047;-69
2021/04/09 05:19:42;;;;;;;14.18;7.03;;;2.20;99.90;;;;;;3575133;40;20033;-67
2021/04/09 05:22:08;;;;;;;14.13;6.97;;;2.40;99.90;;;;;;3575455;40;20048;-66
2021/04/09 05:24:34;;;;;;;16.17;7.43;;;2.40;99.90;;;;;;3574965;40;20132;-67
2021/04/09 05:26:59;;;;;;;16.92;7.63;;;2.60;99.90;;;;;;3577134;40;20037;-67
2021/04/09 05:29:25;;;;;;;12.90;6.68;;;2.60;99.90;;;;;;3576556;40;20088;-68
2021/04/09 05:31:51;;;;;;;15.13;7.78;;;2.70;99.90;;;;;;3573944;40;20044;-68
2021/04/09 05:34:16;;;;;;;11.88;6.90;;;2.80;99.90;;;;;;3574940;40;20040;-68
2021/04/09 05:36:42;;;;;;;14.63;7.03;;;2.90;99.90;;;;;;3573559;40;20084;-67
2021/04/09 05:39:08;;;;;;;13.73;7.57;;;2.90;99.90;;;;;;3567187;40;20029;-68
2021/04/09 05:41:33;;;;;;;13.30;6.45;;;3.00;99.90;;;;;;3575613;40;20063;-68
2021/04/09 05:43:59;;;;;;;17.90;7.15;;;3.10;99.90;;;;;;3575932;40;20101;-67
2021/04/09 05:46:25;;;;;;;12.32;7.35;;;3.20;99.90;;;;;;3577022;40;20040;-68
2021/04/09 05:48:50;;;;;;;12.98;7.13;;;3.40;99.90;;;;;;3575055;40;20033;-68
2021/04/09 05:51:16;;;;;;;13.98;6.75;;;3.40;99.90;;;;;;3576620;40;20055;-67
2021/04/09 05:53:43;;;;;;;11.75;6.43;;;3.40;99.90;;;;;;3577975;40;20115;-67
2021/04/09 05:56:08;;;;;;;13.55;7.20;;;3.50;99.90;;;;;;3576181;40;20033;-67
2021/04/09 05:58:36;;;;;;;11.13;6.53;;;3.60;99.90;;;;;;3569611;40;20048;-67
2021/04/09 06:01:01;;;;;;;11.50;6.60;;;3.80;99.90;;;;;;3575011;40;20048;-67
2021/04/09 06:03:27;;;;;;;16.13;6.90;;;4.00;99.90;;;;;;3571366;40;20129;-67
2021/04/09 06:05:53;;;;;;;19.65;9.80;;;4.20;99.90;;;;;;3575339;40;20044;-67
2021/04/09 06:08:18;;;;;;;15.43;6.57;;;4.40;99.90;;;;;;3574038;40;20056;-68
2021/04/09 06:10:44;;;;;;;12.90;7.35;;;4.50;99.90;;;;;;3576886;40;20044;-67
2021/04/09 06:13:10;;;;;;;14.73;6.88;;;4.60;99.90;;;;;;3574587;40;20646;-67
2021/04/09 06:15:36;;;;;;;14.27;6.85;;;4.50;99.90;;;;;;3577568;40;20032;-67
2021/04/09 06:18:02;;;;;;;19.85;7.00;;;4.50;99.90;;;;;;3574655;40;20040;-67
2021/04/09 06:20:28;;;;;;;11.95;6.35;;;4.60;99.90;;;;;;3575666;40;20040;-67
2021/04/09 06:22:54;;;;;;;17.65;6.93;;;4.70;99.70;;;;;;3572546;40;20223;-67
2021/04/09 06:25:21;;;;;;;12.55;6.38;;;4.70;99.90;;;;;;3568697;40;20036;-67
2021/04/09 06:27:47;;;;;;;10.98;6.18;;;4.80;99.90;;;;;;3573909;40;20499;-67
2021/04/09 06:30:14;;;;;;;11.30;6.10;;;5.00;99.30;;;;;;3576114;40;20049;-67
2021/04/09 06:32:40;;;;;;;13.57;6.15;;;5.10;99.60;;;;;;3574056;40;20056;-67
2021/04/09 06:35:06;;;;;;;13.32;6.10;;;5.00;99.00;;;;;;3568716;40;20033;-67
2021/04/09 06:37:32;;;;;;;14.48;6.30;;;5.00;99.10;;;;;;3574436;40;20049;-67
2021/04/09 06:39:57;;;;;;;13.35;6.15;;;5.20;99.10;;;;;;3573320;40;20036;-67
2021/04/09 06:42:23;;;;;;;15.18;6.05;;;5.20;99.20;;;;;;3575604;40;20033;-67
2021/04/09 06:44:49;;;;;;;12.68;6.35;;;5.10;99.10;;;;;;3575146;40;20128;-67
2021/04/09 06:47:18;;;;;;;9.60;6.10;;;5.10;99.00;;;;;;3575589;40;20040;-67
2021/04/09 06:49:44;;;;;;;13.55;6.15;;;5.10;99.10;;;;;;3573677;40;20045;-67
2021/04/09 06:52:12;;;;;;;14.15;6.85;;;5.10;99.00;;;;;;3574429;40;20047;-66
2021/04/09 06:54:40;;;;;;;12.80;6.25;;;5.30;99.00;;;;;;3574716;40;20073;-66
2021/04/09 06:57:10;;;;;;;11.95;6.20;;;5.50;98.80;;;;;;3574406;40;20033;-67
2021/04/09 06:59:41;;;;;;;13.18;5.90;;;5.70;97.50;;;;;;3572815;40;20037;-66
2021/04/09 07:02:12;;;;;;;16.00;7.80;;;5.90;98.20;;;;;;3577127;40;20045;-66
2021/04/09 07:04:38;;;;;;;13.73;6.75;;;6.00;98.30;;;;;;3571743;40;20026;-67
2021/04/09 07:07:08;;;;;;;14.85;6.00;;;6.30;97.80;;;;;;3571827;40;20056;-68
2021/04/09 07:09:34;;;;;;;15.68;6.88;;;6.10;96.90;;;;;;3573894;40;20048;-67
2021/04/09 07:12:00;;;;;;;11.65;6.22;;;6.00;97.00;;;;;;3574820;40;20037;-67
2021/04/09 07:14:48;;;;;;;17.35;6.55;;;5.70;97.20;;;;;;3572497;40;20029;-67
2021/04/09 07:17:36;;;;;;;15.40;5.68;;;5.90;97.10;;;;;;3571926;40;20044;-67
2021/04/09 07:20:08;;;;;;;10.90;5.78;;;6.10;96.90;;;;;;3563925;40;20040;-67
2021/04/09 07:22:34;;;;;;;12.75;5.93;;;6.20;96.60;;;;;;3577716;40;20795;-67
2021/04/09 07:25:35;;;;;;;14.25;5.97;;;6.50;96.60;;;;;;3568024;40;20041;-67
2021/04/09 07:28:22;;;;;;;16.48;6.22;;;6.60;96.10;;;;;;3572879;40;20049;-67
2021/04/09 07:30:50;;;;;;;12.48;6.00;;;6.50;96.10;;;;;;3576910;40;20047;-67
2021/04/09 07:33:18;;;;;;;17.65;6.47;;;6.60;95.80;;;;;;3576755;40;20317;-67
2021/04/09 07:35:49;;;;;;;17.05;6.38;;;6.60;96.10;;;;;;3576760;40;20133;-67
2021/04/09 07:38:29;;;;;;;14.32;6.00;;;6.90;95.90;;;;;;3576092;40;20111;-67
2021/04/09 07:41:01;;;;;;;13.65;6.20;;;7.10;95.40;;;;;;3575798;40;20091;-66
2021/04/09 07:43:37;;;;;;;32.63;14.00;;;7.30;94.60;;;;;;3574851;40;20441;-67
2021/04/09 07:46:05;;;;;;;54.80;34.53;;;7.70;94.10;;;;;;3576079;40;20449;-69
2021/04/09 07:48:34;;;;;;;15.30;6.70;;;7.80;93.90;;;;;;3575610;40;20064;-67
2021/04/09 07:51:01;;;;;;;14.55;8.18;;;7.90;94.10;;;;;;3573111;40;20218;-67
2021/04/09 07:55:31;;;;;;;20.67;7.40;;;8.20;93.30;;;;;;3580545;39;21075;-67
2021/04/09 07:58:15;;;;;;;18.58;7.63;;;8.30;92.30;;;;;;3574298;40;20052;-68
2021/04/09 08:00:42;;;;;;;21.58;8.68;;;8.30;91.20;;;;;;3575104;40;20149;-68
2021/04/09 08:03:08;;;;;;;22.83;8.98;;;8.30;92.10;;;;;;3574786;40;20040;-68
2021/04/09 08:05:34;;;;;;;21.90;8.68;;;8.30;91.80;;;;;;3574988;40;20684;-67
2021/04/09 08:07:59;;;;;;;17.50;6.97;;;8.10;91.70;;;;;;3575722;40;20033;-68
2021/04/09 08:10:33;;;;;;;30.15;13.55;;;7.90;92.40;;;;;;3574154;40;20032;-68
2021/04/09 08:13:01;;;;;;;17.35;7.95;;;8.10;92.90;;;;;;3576487;40;20067;-67
2021/04/09 08:15:29;;;;;;;16.50;8.00;;;8.40;92.00;;;;;;3576319;40;20037;-67
2021/04/09 08:18:07;;;;;;;14.93;5.82;;;8.60;91.50;;;;;;3572673;40;20048;-67
2021/04/09 08:20:36;;;;;;;14.13;5.95;;;8.50;91.50;;;;;;3573044;40;20029;-67
2021/04/09 08:23:14;;;;;;;23.85;11.73;;;8.60;91.10;;;;;;3576563;40;20032;-67
2021/04/09 08:25:41;;;;;;;16.27;7.35;;;9.10;91.70;;;;;;3573976;40;20060;-67
2021/04/09 08:28:09;;;;;;;20.17;7.18;;;9.70;89.90;;;;;;3575609;40;20029;-68
2021/04/09 08:30:36;;;;;;;10.43;5.35;;;9.50;88.80;;;;;;3573805;40;20060;-67
2021/04/09 08:33:03;;;;;;;16.27;6.80;;;9.80;87.60;;;;;;3574308;40;20052;-67
2021/04/09 08:35:28;;;;;;;10.55;5.53;;;9.90;85.40;;;;;;3575091;40;20033;-68
2021/04/09 08:37:56;;;;;;;17.75;5.38;;;10.10;87.40;;;;;;3575823;40;20322;-67
2021/04/09 08:40:22;;;;;;;16.48;8.52;;;10.00;85.00;;;;;;3576010;40;20029;-67
2021/04/09 08:42:48;;;;;;;19.77;7.65;;;10.10;84.40;;;;;;3576298;40;20053;-67
2021/04/09 08:45:15;;;;;;;17.70;7.40;;;10.30;82.90;;;;;;3576196;40;20052;-67
2021/04/09 08:47:42;;;;;;;13.13;5.68;;;10.40;80.70;;;;;;3575915;40;20093;-68
2021/04/09 08:50:10;;;;;;;15.07;6.50;;;10.20;80.70;;;;;;3576509;40;20033;-67
2021/04/09 08:52:44;;;;;;;10.07;6.00;;;10.00;80.10;;;;;;3571991;40;20033;-67
2021/04/09 08:55:15;;;;;;;11.63;5.57;;;10.30;80.60;;;;;;3575858;40;20341;-67
2021/04/09 08:57:44;;;;;;;18.67;6.90;;;10.60;81.30;;;;;;3574093;40;20114;-67
2021/04/09 09:00:14;;;;;;;11.15;5.38;;;10.70;78.90;;;;;;3575553;40;20239;-67
2021/04/09 09:02:43;;;;;;;19.45;9.43;;;10.80;76.20;;;;;;3574978;40;20083;-67
2021/04/09 09:05:12;;;;;;;10.93;6.05;;;10.90;78.10;;;;;;3572824;40;20076;-67
2021/04/09 09:07:51;;;;;;;9.13;5.32;;;11.00;75.50;;;;;;3568632;40;20048;-67
2021/04/09 09:10:22;;;;;;;18.55;7.00;;;10.70;76.90;;;;;;3568339;40;20122;-66
2021/04/09 09:13:06;;;;;;;19.83;9.13;;;10.80;77.00;;;;;;3569251;40;20045;-64
2021/04/09 09:15:46;;;;;;;13.05;6.55;;;10.90;77.30;;;;;;3568792;40;20053;-65
2021/04/09 09:18:33;;;;;;;16.45;6.78;;;10.90;75.00;;;;;;3568903;40;21002;-65
2021/04/09 09:21:10;;;;;;;11.43;6.03;;;10.90;76.40;;;;;;3568358;40;20176;-65
2021/04/09 09:23:56;;;;;;;14.85;6.05;;;10.90;75.30;;;;;;3565914;40;20533;-65
2021/04/09 09:26:40;;;;;;;14.20;6.35;;;11.00;74.30;;;;;;3568693;40;20101;-65
2021/04/09 09:29:27;;;;;;;10.48;6.00;;;11.10;75.50;;;;;;3566690;40;20085;-65
2021/04/09 09:31:57;;;;;;;12.63;6.03;;;11.30;73.70;;;;;;3569395;40;20410;-66
2021/04/09 09:34:31;;;;;;;60.08;42.80;;;11.70;73.10;;;;;;3569055;40;20399;-65
2021/04/09 09:37:19;;;;;;;16.98;7.60;;;11.90;73.00;;;;;;3567287;40;20104;-65
2021/04/09 09:39:58;;;;;;;12.35;7.72;;;12.00;71.90;;;;;;3567931;40;20047;-66
2021/04/09 09:42:25;;;;;;;42.95;30.20;;;12.20;69.40;;;;;;3567696;40;20092;-65
2021/04/09 09:44:56;;;;;;;47.17;33.53;;;12.10;71.00;;;;;;3564323;40;20321;-65
2021/04/09 09:47:27;;;;;;;11.98;6.45;;;12.50;71.20;;;;;;3567320;40;20041;-66
2021/04/09 09:50:05;;;;;;;18.77;11.32;;;12.50;69.10;;;;;;3567013;40;20138;-65
2021/04/09 09:52:44;;;;;;;14.68;9.15;;;12.50;68.80;;;;;;3569054;40;20075;-66
2021/04/09 09:55:23;;;;;;;18.23;9.30;;;12.80;68.90;;;;;;3569344;40;20055;-66
2021/04/09 09:58:02;;;;;;;12.50;6.03;;;13.30;68.80;;;;;;3568451;40;20051;-65
2021/04/09 10:00:32;;;;;;;9.57;5.82;;;13.40;66.20;;;;;;3567973;40;20098;-64
2021/04/09 10:03:21;;;;;;;14.77;6.88;;;13.40;65.70;;;;;;3568426;40;20043;-65
2021/04/09 10:05:55;;;;;;;14.00;7.43;;;13.20;66.60;;;;;;3566979;40;20049;-65
2021/04/09 10:08:22;;;;;;;20.60;12.45;;;13.50;65.70;;;;;;3568808;40;20072;-65
2021/04/09 10:10:53;;;;;;;15.80;6.22;;;13.50;64.50;;;;;;3568531;40;20040;-65
2021/04/09 10:13:34;;;;;;;14.70;6.35;;;13.30;64.60;;;;;;3568498;40;20145;-65
2021/04/09 10:16:13;;;;;;;12.18;6.75;;;13.40;64.50;;;;;;3569035;40;20061;-65
2021/04/09 10:18:41;;;;;;;13.93;8.07;;;13.80;65.60;;;;;;3568738;40;20037;-64
2021/04/09 10:21:12;;;;;;;13.15;5.97;;;13.90;64.60;;;;;;3569224;40;20092;-65
2021/04/09 10:23:38;;;;;;;17.17;8.20;;;13.60;64.40;;;;;;3568189;40;20041;-65
2021/04/09 10:26:03;;;;;;;11.07;5.88;;;13.70;64.90;;;;;;3568315;40;20444;-65
2021/04/09 10:28:36;;;;;;;17.75;6.95;;;13.50;65.40;;;;;;3567775;40;20060;-65
2021/04/09 10:31:14;;;;;;;11.57;6.45;;;13.10;65.00;;;;;;3568099;40;20080;-65
2021/04/09 10:33:59;;;;;;;15.15;7.88;;;13.30;67.30;;;;;;3568211;40;20029;-65
2021/04/09 10:36:25;;;;;;;14.77;7.43;;;13.60;65.10;;;;;;3567494;40;20037;-65
2021/04/09 10:38:53;;;;;;;15.02;7.50;;;13.50;66.10;;;;;;3568654;40;20936;-65
2021/04/09 10:41:42;;;;;;;13.90;7.65;;;13.30;65.70;;;;;;3566473;40;20049;-65
2021/04/09 10:44:12;;;;;;;14.77;7.10;;;13.20;65.90;;;;;;3567320;40;20044;-65
2021/04/09 10:46:43;;;;;;;16.48;7.45;;;13.30;67.10;;;;;;3567669;40;20025;-65
2021/04/09 10:49:15;;;;;;;14.75;8.32;;;13.20;65.60;;;;;;3567566;40;20812;-65
2021/04/09 10:51:50;;;;;;;18.70;9.23;;;13.30;64.70;;;;;;3567603;40;20041;-65
2021/04/09 10:54:18;;;;;;;16.08;8.15;;;13.30;65.50;;;;;;3567814;40;20422;-65
2021/04/09 10:56:55;;;;;;;16.80;7.07;;;13.50;65.30;;;;;;3567838;40;20138;-65
2021/04/09 10:59:25;;;;;;;15.40;7.93;;;14.00;65.60;;;;;;3568125;40;20056;-65
2021/04/09 11:01:51;;;;;;;14.65;8.15;;;14.50;63.30;;;;;;3568415;40;20037;-65
2021/04/09 11:04:17;;;;;;;19.50;9.75;;;14.50;62.60;;;;;;3567685;40;20043;-64
2021/04/09 11:06:54;;;;;;;15.98;6.70;;;14.00;62.40;;;;;;3567803;40;20033;-63
2021/04/09 11:09:21;;;;;;;14.27;6.68;;;13.70;63.70;;;;;;3567652;40;20077;-63
2021/04/09 11:11:47;;;;;;;27.08;8.65;;;13.60;64.00;;;;;;3567381;40;20022;-63
2021/04/09 11:14:19;;;;;;;15.27;8.75;;;13.80;63.50;;;;;;3568036;40;20025;-64
2021/04/09 11:16:57;;;;;;;13.68;7.45;;;14.10;63.20;;;;;;3567734;40;20780;-64
2021/04/09 11:19:30;;;;;;;14.57;6.00;;;14.30;64.10;;;;;;3567514;40;20033;-64
2021/04/09 11:21:57;;;;;;;14.40;6.68;;;14.10;62.70;;;;;;3566516;40;20049;-63
2021/04/09 11:24:27;;;;;;;19.27;6.00;;;14.10;64.20;;;;;;3568554;40;20025;-64
2021/04/09 11:26:54;;;;;;;17.58;8.13;;;14.50;63.30;;;;;;3567380;40;20129;-64
2021/04/09 11:29:21;;;;;;;10.70;5.50;;;14.20;63.90;;;;;;3565572;40;20077;-64
2021/04/09 11:31:47;;;;;;;15.27;6.85;;;14.50;62.20;;;;;;3567663;40;20025;-64
2021/04/09 11:34:13;;;;;;;12.73;7.70;;;14.50;62.70;;;;;;3567654;40;20053;-63
2021/04/09 11:36:51;;;;;;;12.40;5.43;;;14.90;61.00;;;;;;3567635;40;20072;-64
2021/04/09 11:39:19;;;;;;;11.65;5.78;;;14.90;60.70;;;;;;3567154;40;20100;-63
2021/04/09 11:42:02;;;;;;;11.15;5.60;;;15.30;61.00;;;;;;3566792;40;20045;-64
2021/04/09 11:44:31;;;;;;;10.27;5.05;;;16.00;59.30;;;;;;3566653;40;20421;-64
2021/04/09 11:47:16;;;;;;;11.85;5.28;;;16.90;56.60;;;;;;3567730;40;20040;-63
2021/04/09 11:49:42;;;;;;;;;;;16.70;55.70;;;;;;3566796;40;21003;-64
2021/04/09 11:52:08;;;;;;;11.63;5.90;;;16.60;55.10;;;;;;3567765;40;19940;-64
2021/04/09 11:54:36;;;;;;;12.02;6.43;;;16.00;56.10;;;;;;3567524;40;20064;-63
2021/04/09 11:57:03;;;;;;;15.07;6.60;;;15.90;56.90;;;;;;3567913;40;20041;-63
2021/04/09 11:59:33;;;;;;;17.05;6.57;;;15.50;56.80;;;;;;3567769;40;20056;-64
2021/04/09 12:02:19;;;;;;;14.38;6.15;;;16.00;56.70;;;;;;3567104;40;20131;-63
2021/04/09 12:04:45;;;;;;;;;;;17.00;55.70;;;;;;3566763;40;20045;-64
2021/04/09 12:07:17;;;;;;;12.57;5.88;;;17.50;54.10;;;;;;3566936;40;20006;-64
2021/04/09 12:09:45;;;;;;;9.88;5.55;;;17.80;53.40;;;;;;3567357;40;20426;-64
2021/04/09 12:12:13;;;;;;;10.80;5.60;;;17.00;54.50;;;;;;3566868;40;20048;-64
2021/04/09 12:14:54;;;;;;;8.43;5.25;;;17.10;55.00;;;;;;3564989;40;20037;-64
2021/04/09 12:17:21;;;;;;;12.65;5.82;;;17.70;53.90;;;;;;3566756;40;20049;-64
2021/04/09 12:19:48;;;;;;;15.20;6.00;;;18.20;51.90;;;;;;3566622;40;20804;-64
2021/04/09 12:22:15;;;;;;;16.35;6.30;;;17.50;52.30;;;;;;3566996;40;20041;-64
2021/04/09 12:24:41;;;;;;;11.70;6.20;;;17.50;52.50;;;;;;3566837;40;20056;-64
2021/04/09 12:27:08;;;;;;;14.07;6.00;;;17.60;52.00;;;;;;3567093;40;20045;-64
2021/04/09 12:29:35;;;;;;;11.30;6.07;;;16.70;53.50;;;;;;3568394;40;20044;-64
2021/04/09 12:32:02;;;;;;;12.60;6.47;;;16.30;53.10;;;;;;3568435;40;20525;-64
2021/04/09 12:34:28;;;;;;;14.93;6.38;;;15.90;54.40;;;;;;3567252;40;20056;-66
2021/04/09 12:36:54;;;;;;;10.80;6.60;;;15.20;54.60;;;;;;3566770;40;20044;-64
2021/04/09 12:39:21;;;;;;;10.85;6.35;;;14.80;55.50;;;;;;3566633;40;20048;-64
2021/04/09 12:41:48;;;;;;;17.02;8.90;;;14.40;56.70;;;;;;3567625;40;20041;-64
2021/04/09 12:44:15;;;;;;;16.33;6.55;;;14.40;57.30;;;;;;3567424;40;20789;-64
2021/04/09 12:46:47;;;;;;;16.40;6.72;;;14.40;58.30;;;;;;3566773;40;20556;-64
2021/04/09 12:49:13;;;;;;;15.48;6.93;;;14.90;57.10;;;;;;3566565;40;20040;-64
2021/04/09 12:51:39;;;;;;;13.13;6.55;;;14.90;58.60;;;;;;3566818;40;20052;-64
2021/04/09 12:54:05;;;;;;;13.07;6.60;;;15.10;57.40;;;;;;3568208;40;20414;-64
2021/04/09 12:56:31;;;;;;;13.00;6.90;;;14.60;58.00;;;;;;3568534;40;20057;-64
2021/04/09 12:58:56;;;;;;;14.88;6.72;;;14.40;57.70;;;;;;3568588;40;20053;-64